sensor_id;sensor_type;location;lat;lon;timestamp;P1;durP1;ratioP1;P2;durP2;ratioP2
46505;SDS011;32220;49.808;9.968;2023-07-29T00:02:20;4.13;;;3.27;;
46505;SDS011;32220;49.808;9.968;2023-07-29T00:04:48;4.80;;;4.40;;
46505;SDS011;32220;49.808;9.968;2023-07-29T00:07:17;4.40;;;4.00;;
46505;SDS011;32220;49.808;9.968;2023-07-29T00:09:44;4.70;;;4.40;;
46505;SDS011;32220;49.808;9.968;2023-07-29T00:12:16;5.30;;;4.80;;
46505;SDS011;32220;49.808;9.968;2023-07-29T00:14:46;5.10;;;4.63;;
46505;SDS011;32220;49.808;9.968;2023-07-29T00:17:13;4.87;;;4.23;;
46505;SDS011;32220;49.808;9.968;2023-07-29T00:19:41;4.10;;;3.83;;
46505;SDS011;32220;49.808;9.968;2023-07-29T00:22:08;4.50;;;4.10;;
46505;SDS011;32220;49.808;9.968;2023-07-29T00:24:39;4.17;;;3.87;;
46505;SDS011;32220;49.808;9.968;2023-07-29T00:27:06;4.63;;;4.17;;
46505;SDS011;32220;49.808;9.968;2023-07-29T00:29:34;4.33;;;3.93;;
46505;SDS011;32220;49.808;9.968;2023-07-29T00:32:01;4.43;;;4.13;;
46505;SDS011;32220;49.808;9.968;2023-07-29T00:34:29;4.07;;;3.77;;
46505;SDS011;32220;49.808;9.968;2023-07-29T00:36:57;3.50;;;3.20;;
46505;SDS011;32220;49.808;9.968;2023-07-29T00:39:24;3.80;;;2.97;;
46505;SDS011;32220;49.808;9.968;2023-07-29T00:41:54;4.27;;;3.87;;
46505;SDS011;32220;49.808;9.968;2023-07-29T00:44:21;4.23;;;3.63;;
46505;SDS011;32220;49.808;9.968;2023-07-29T00:46:49;3.40;;;3.20;;
46505;SDS011;32220;49.808;9.968;2023-07-29T00:49:20;4.07;;;3.00;;
46505;SDS011;32220;49.808;9.968;2023-07-29T00:51:48;3.63;;;3.43;;
46505;SDS011;32220;49.808;9.968;2023-07-29T00:54:16;3.33;;;3.13;;
46505;SDS011;32220;49.808;9.968;2023-07-29T00:56:44;3.00;;;2.80;;
46505;SDS011;32220;49.808;9.968;2023-07-29T00:59:14;3.30;;;3.10;;
46505;SDS011;32220;49.808;9.968;2023-07-29T01:01:42;3.90;;;3.60;;
46505;SDS011;32220;49.808;9.968;2023-07-29T01:04:10;2.63;;;2.43;;
46505;SDS011;32220;49.808;9.968;2023-07-29T01:06:40;4.23;;;3.83;;
46505;SDS011;32220;49.808;9.968;2023-07-29T01:09:17;3.43;;;3.13;;
46505;SDS011;32220;49.808;9.968;2023-07-29T01:12:04;4.60;;;3.73;;
46505;SDS011;32220;49.808;9.968;2023-07-29T01:14:41;3.83;;;3.53;;
46505;SDS011;32220;49.808;9.968;2023-07-29T01:17:15;3.90;;;3.50;;
46505;SDS011;32220;49.808;9.968;2023-07-29T01:19:55;3.60;;;3.30;;
46505;SDS011;32220;49.808;9.968;2023-07-29T01:22:27;3.67;;;3.47;;
46505;SDS011;32220;49.808;9.968;2023-07-29T01:24:59;3.10;;;2.90;;
46505;SDS011;32220;49.808;9.968;2023-07-29T01:27:27;3.47;;;3.20;;
46505;SDS011;32220;49.808;9.968;2023-07-29T01:29:55;3.80;;;3.50;;
46505;SDS011;32220;49.808;9.968;2023-07-29T01:32:29;3.23;;;3.00;;
46505;SDS011;32220;49.808;9.968;2023-07-29T01:35:03;4.10;;;3.10;;
46505;SDS011;32220;49.808;9.968;2023-07-29T01:37:44;4.40;;;3.63;;
46505;SDS011;32220;49.808;9.968;2023-07-29T01:40:17;3.00;;;2.80;;
46505;SDS011;32220;49.808;9.968;2023-07-29T01:42:46;3.53;;;3.23;;
46505;SDS011;32220;49.808;9.968;2023-07-29T01:45:14;3.37;;;3.07;;
46505;SDS011;32220;49.808;9.968;2023-07-29T01:47:42;3.57;;;3.27;;
46505;SDS011;32220;49.808;9.968;2023-07-29T01:50:10;3.60;;;3.30;;
46505;SDS011;32220;49.808;9.968;2023-07-29T01:52:38;3.50;;;3.30;;
46505;SDS011;32220;49.808;9.968;2023-07-29T01:55:06;5.03;;;3.70;;
46505;SDS011;32220;49.808;9.968;2023-07-29T01:57:36;3.73;;;3.33;;
46505;SDS011;32220;49.808;9.968;2023-07-29T02:00:04;3.57;;;3.27;;
46505;SDS011;32220;49.808;9.968;2023-07-29T02:02:41;4.10;;;3.27;;
46505;SDS011;32220;49.808;9.968;2023-07-29T02:05:08;2.77;;;2.57;;
46505;SDS011;32220;49.808;9.968;2023-07-29T02:07:36;3.40;;;3.20;;
46505;SDS011;32220;49.808;9.968;2023-07-29T02:10:04;3.83;;;3.57;;
46505;SDS011;32220;49.808;9.968;2023-07-29T02:12:33;3.23;;;2.93;;
46505;SDS011;32220;49.808;9.968;2023-07-29T02:15:03;3.30;;;3.10;;
46505;SDS011;32220;49.808;9.968;2023-07-29T02:17:32;3.20;;;2.90;;
46505;SDS011;32220;49.808;9.968;2023-07-29T02:19:59;3.17;;;2.97;;
46505;SDS011;32220;49.808;9.968;2023-07-29T02:22:27;3.03;;;2.70;;
46505;SDS011;32220;49.808;9.968;2023-07-29T02:24:54;3.33;;;2.70;;
46505;SDS011;32220;49.808;9.968;2023-07-29T02:27:22;2.70;;;2.50;;
46505;SDS011;32220;49.808;9.968;2023-07-29T02:29:52;3.13;;;2.93;;
46505;SDS011;32220;49.808;9.968;2023-07-29T02:32:21;3.60;;;3.30;;
46505;SDS011;32220;49.808;9.968;2023-07-29T02:34:49;3.80;;;3.33;;
46505;SDS011;32220;49.808;9.968;2023-07-29T02:37:16;4.93;;;3.70;;
46505;SDS011;32220;49.808;9.968;2023-07-29T02:39:44;4.10;;;3.70;;
46505;SDS011;32220;49.808;9.968;2023-07-29T02:42:12;4.80;;;3.27;;
46505;SDS011;32220;49.808;9.968;2023-07-29T02:44:39;3.50;;;3.20;;
46505;SDS011;32220;49.808;9.968;2023-07-29T02:47:07;3.10;;;2.80;;
46505;SDS011;32220;49.808;9.968;2023-07-29T02:49:36;2.77;;;2.57;;
46505;SDS011;32220;49.808;9.968;2023-07-29T02:52:04;3.33;;;2.40;;
46505;SDS011;32220;49.808;9.968;2023-07-29T02:54:32;2.63;;;2.30;;
46505;SDS011;32220;49.808;9.968;2023-07-29T02:57:00;2.33;;;2.13;;
46505;SDS011;32220;49.808;9.968;2023-07-29T02:59:28;3.10;;;2.53;;
46505;SDS011;32220;49.808;9.968;2023-07-29T03:01:57;2.20;;;2.00;;
46505;SDS011;32220;49.808;9.968;2023-07-29T03:04:25;2.30;;;2.10;;
46505;SDS011;32220;49.808;9.968;2023-07-29T03:06:54;2.00;;;1.87;;
46505;SDS011;32220;49.808;9.968;2023-07-29T03:09:22;2.77;;;2.23;;
46505;SDS011;32220;49.808;9.968;2023-07-29T03:11:49;3.40;;;2.13;;
46505;SDS011;32220;49.808;9.968;2023-07-29T03:14:18;1.97;;;1.87;;
46505;SDS011;32220;49.808;9.968;2023-07-29T03:16:46;1.83;;;1.73;;
46505;SDS011;32220;49.808;9.968;2023-07-29T03:19:14;4.17;;;2.00;;
46505;SDS011;32220;49.808;9.968;2023-07-29T03:21:43;3.73;;;2.73;;
46505;SDS011;32220;49.808;9.968;2023-07-29T03:24:13;5.27;;;3.07;;
46505;SDS011;32220;49.808;9.968;2023-07-29T03:26:41;6.57;;;2.80;;
46505;SDS011;32220;49.808;9.968;2023-07-29T03:29:08;3.77;;;2.93;;
46505;SDS011;32220;49.808;9.968;2023-07-29T03:31:36;2.40;;;1.60;;
46505;SDS011;32220;49.808;9.968;2023-07-29T03:34:04;2.37;;;2.13;;
46505;SDS011;32220;49.808;9.968;2023-07-29T03:36:32;2.53;;;2.10;;
46505;SDS011;32220;49.808;9.968;2023-07-29T03:39:00;2.97;;;2.10;;
46505;SDS011;32220;49.808;9.968;2023-07-29T03:41:31;2.03;;;1.80;;
46505;SDS011;32220;49.808;9.968;2023-07-29T03:43:59;1.97;;;1.50;;
46505;SDS011;32220;49.808;9.968;2023-07-29T03:46:26;1.90;;;1.70;;
46505;SDS011;32220;49.808;9.968;2023-07-29T03:48:54;2.90;;;1.80;;
46505;SDS011;32220;49.808;9.968;2023-07-29T03:51:22;3.03;;;1.90;;
46505;SDS011;32220;49.808;9.968;2023-07-29T03:53:50;1.83;;;1.73;;
46505;SDS011;32220;49.808;9.968;2023-07-29T03:56:18;2.07;;;1.80;;
46505;SDS011;32220;49.808;9.968;2023-07-29T03:58:47;1.83;;;1.73;;
46505;SDS011;32220;49.808;9.968;2023-07-29T04:01:15;3.83;;;1.90;;
46505;SDS011;32220;49.808;9.968;2023-07-29T04:03:44;2.97;;;1.90;;
46505;SDS011;32220;49.808;9.968;2023-07-29T04:06:12;1.80;;;1.70;;
46505;SDS011;32220;49.808;9.968;2023-07-29T04:08:40;2.00;;;1.57;;
46505;SDS011;32220;49.808;9.968;2023-07-29T04:11:08;3.83;;;1.63;;
46505;SDS011;32220;49.808;9.968;2023-07-29T04:13:36;1.90;;;1.70;;
46505;SDS011;32220;49.808;9.968;2023-07-29T04:16:06;1.70;;;1.60;;
46505;SDS011;32220;49.808;9.968;2023-07-29T04:18:34;1.90;;;1.70;;
46505;SDS011;32220;49.808;9.968;2023-07-29T04:21:01;1.37;;;1.27;;
46505;SDS011;32220;49.808;9.968;2023-07-29T04:23:29;1.30;;;1.20;;
46505;SDS011;32220;49.808;9.968;2023-07-29T04:25:57;1.80;;;1.57;;
46505;SDS011;32220;49.808;9.968;2023-07-29T04:28:24;1.40;;;1.30;;
46505;SDS011;32220;49.808;9.968;2023-07-29T04:30:52;1.27;;;1.17;;
46505;SDS011;32220;49.808;9.968;2023-07-29T04:33:22;1.63;;;1.23;;
46505;SDS011;32220;49.808;9.968;2023-07-29T04:35:50;2.03;;;1.23;;
46505;SDS011;32220;49.808;9.968;2023-07-29T04:38:18;1.37;;;1.20;;
46505;SDS011;32220;49.808;9.968;2023-07-29T04:40:45;1.10;;;1.00;;
46505;SDS011;32220;49.808;9.968;2023-07-29T04:43:14;1.37;;;1.07;;
46505;SDS011;32220;49.808;9.968;2023-07-29T04:45:42;1.37;;;1.27;;
46505;SDS011;32220;49.808;9.968;2023-07-29T04:48:10;4.37;;;1.50;;
46505;SDS011;32220;49.808;9.968;2023-07-29T04:50:39;1.20;;;1.10;;
46505;SDS011;32220;49.808;9.968;2023-07-29T04:53:07;1.20;;;0.97;;
46505;SDS011;32220;49.808;9.968;2023-07-29T04:55:35;1.20;;;0.90;;
46505;SDS011;32220;49.808;9.968;2023-07-29T04:58:02;1.20;;;1.10;;
46505;SDS011;32220;49.808;9.968;2023-07-29T05:00:30;1.93;;;1.00;;
46505;SDS011;32220;49.808;9.968;2023-07-29T05:02:59;1.37;;;1.10;;
46505;SDS011;32220;49.808;9.968;2023-07-29T05:05:27;2.07;;;1.23;;
46505;SDS011;32220;49.808;9.968;2023-07-29T05:07:57;1.30;;;1.00;;
46505;SDS011;32220;49.808;9.968;2023-07-29T05:10:25;1.53;;;1.00;;
46505;SDS011;32220;49.808;9.968;2023-07-29T05:12:52;1.10;;;1.00;;
46505;SDS011;32220;49.808;9.968;2023-07-29T05:15:20;1.43;;;1.20;;
46505;SDS011;32220;49.808;9.968;2023-07-29T05:17:48;0.87;;;0.87;;
46505;SDS011;32220;49.808;9.968;2023-07-29T05:20:16;1.00;;;0.90;;
46505;SDS011;32220;49.808;9.968;2023-07-29T05:22:43;1.10;;;0.93;;
46505;SDS011;32220;49.808;9.968;2023-07-29T05:25:13;1.10;;;0.93;;
46505;SDS011;32220;49.808;9.968;2023-07-29T05:27:41;1.10;;;1.00;;
46505;SDS011;32220;49.808;9.968;2023-07-29T05:30:08;1.60;;;1.10;;
46505;SDS011;32220;49.808;9.968;2023-07-29T05:32:37;1.20;;;1.10;;
46505;SDS011;32220;49.808;9.968;2023-07-29T05:35:06;2.93;;;1.43;;
46505;SDS011;32220;49.808;9.968;2023-07-29T05:37:35;1.00;;;0.90;;
46505;SDS011;32220;49.808;9.968;2023-07-29T05:40:05;1.23;;;1.13;;
46505;SDS011;32220;49.808;9.968;2023-07-29T05:42:36;1.40;;;1.30;;
46505;SDS011;32220;49.808;9.968;2023-07-29T05:45:04;1.63;;;0.90;;
46505;SDS011;32220;49.808;9.968;2023-07-29T05:47:32;1.63;;;1.20;;
46505;SDS011;32220;49.808;9.968;2023-07-29T05:50:00;1.63;;;1.33;;
46505;SDS011;32220;49.808;9.968;2023-07-29T05:52:30;1.23;;;1.10;;
46505;SDS011;32220;49.808;9.968;2023-07-29T05:54:58;1.10;;;1.00;;
46505;SDS011;32220;49.808;9.968;2023-07-29T05:57:26;1.43;;;1.33;;
46505;SDS011;32220;49.808;9.968;2023-07-29T05:59:55;1.20;;;1.10;;
46505;SDS011;32220;49.808;9.968;2023-07-29T06:02:23;1.10;;;1.00;;
46505;SDS011;32220;49.808;9.968;2023-07-29T06:04:52;1.10;;;1.00;;
46505;SDS011;32220;49.808;9.968;2023-07-29T06:07:19;1.10;;;1.00;;
46505;SDS011;32220;49.808;9.968;2023-07-29T06:09:47;1.67;;;0.80;;
46505;SDS011;32220;49.808;9.968;2023-07-29T06:12:15;1.60;;;1.20;;
46505;SDS011;32220;49.808;9.968;2023-07-29T06:14:42;0.97;;;0.97;;
46505;SDS011;32220;49.808;9.968;2023-07-29T06:17:12;1.40;;;1.10;;
46505;SDS011;32220;49.808;9.968;2023-07-29T06:19:39;1.03;;;1.00;;
46505;SDS011;32220;49.808;9.968;2023-07-29T06:22:07;1.07;;;1.00;;
46505;SDS011;32220;49.808;9.968;2023-07-29T06:24:34;2.10;;;1.30;;
46505;SDS011;32220;49.808;9.968;2023-07-29T06:27:02;1.07;;;0.97;;
46505;SDS011;32220;49.808;9.968;2023-07-29T06:29:30;1.07;;;0.97;;
46505;SDS011;32220;49.808;9.968;2023-07-29T06:31:58;1.20;;;1.10;;
46505;SDS011;32220;49.808;9.968;2023-07-29T06:34:28;1.30;;;1.20;;
46505;SDS011;32220;49.808;9.968;2023-07-29T06:36:55;0.97;;;0.83;;
46505;SDS011;32220;49.808;9.968;2023-07-29T06:39:23;1.10;;;1.00;;
46505;SDS011;32220;49.808;9.968;2023-07-29T06:41:51;0.80;;;0.80;;
46505;SDS011;32220;49.808;9.968;2023-07-29T06:44:18;2.30;;;1.07;;
46505;SDS011;32220;49.808;9.968;2023-07-29T06:46:46;1.27;;;1.00;;
46505;SDS011;32220;49.808;9.968;2023-07-29T06:49:13;1.20;;;1.10;;
46505;SDS011;32220;49.808;9.968;2023-07-29T06:51:43;1.00;;;0.90;;
46505;SDS011;32220;49.808;9.968;2023-07-29T06:54:10;1.23;;;1.03;;
46505;SDS011;32220;49.808;9.968;2023-07-29T06:56:38;1.23;;;1.00;;
46505;SDS011;32220;49.808;9.968;2023-07-29T06:59:05;1.10;;;0.90;;
46505;SDS011;32220;49.808;9.968;2023-07-29T07:01:33;2.27;;;1.13;;
46505;SDS011;32220;49.808;9.968;2023-07-29T07:04:01;1.20;;;1.00;;
46505;SDS011;32220;49.808;9.968;2023-07-29T07:06:29;1.37;;;0.87;;
46505;SDS011;32220;49.808;9.968;2023-07-29T07:08:58;1.10;;;0.93;;
46505;SDS011;32220;49.808;9.968;2023-07-29T07:11:26;1.00;;;1.00;;
46505;SDS011;32220;49.808;9.968;2023-07-29T07:13:54;1.70;;;1.10;;
46505;SDS011;32220;49.808;9.968;2023-07-29T07:16:21;1.00;;;0.90;;
46505;SDS011;32220;49.808;9.968;2023-07-29T07:18:49;1.03;;;0.93;;
46505;SDS011;32220;49.808;9.968;2023-07-29T07:21:17;1.13;;;0.90;;
46505;SDS011;32220;49.808;9.968;2023-07-29T07:23:44;1.03;;;0.90;;
46505;SDS011;32220;49.808;9.968;2023-07-29T07:26:14;1.00;;;0.90;;
46505;SDS011;32220;49.808;9.968;2023-07-29T07:28:41;1.00;;;0.87;;
46505;SDS011;32220;49.808;9.968;2023-07-29T07:31:09;1.20;;;0.90;;
46505;SDS011;32220;49.808;9.968;2023-07-29T07:33:37;1.23;;;1.10;;
46505;SDS011;32220;49.808;9.968;2023-07-29T07:36:04;1.30;;;1.00;;
46505;SDS011;32220;49.808;9.968;2023-07-29T07:38:32;1.23;;;1.10;;
46505;SDS011;32220;49.808;9.968;2023-07-29T07:41:00;1.23;;;0.90;;
46505;SDS011;32220;49.808;9.968;2023-07-29T07:43:29;1.60;;;1.00;;
46505;SDS011;32220;49.808;9.968;2023-07-29T07:45:57;2.07;;;0.90;;
46505;SDS011;32220;49.808;9.968;2023-07-29T07:48:26;1.93;;;0.77;;
46505;SDS011;32220;49.808;9.968;2023-07-29T07:50:53;1.27;;;0.90;;
46505;SDS011;32220;49.808;9.968;2023-07-29T07:53:21;1.30;;;0.93;;
46505;SDS011;32220;49.808;9.968;2023-07-29T07:55:48;1.00;;;0.63;;
46505;SDS011;32220;49.808;9.968;2023-07-29T07:58:16;0.83;;;0.83;;
46505;SDS011;32220;49.808;9.968;2023-07-29T08:00:45;0.70;;;0.70;;
46505;SDS011;32220;49.808;9.968;2023-07-29T08:03:13;0.80;;;0.80;;
46505;SDS011;32220;49.808;9.968;2023-07-29T08:05:41;0.93;;;0.70;;
46505;SDS011;32220;49.808;9.968;2023-07-29T08:08:08;1.17;;;0.73;;
46505;SDS011;32220;49.808;9.968;2023-07-29T08:10:36;0.87;;;0.63;;
46505;SDS011;32220;49.808;9.968;2023-07-29T08:13:04;1.03;;;0.70;;
46505;SDS011;32220;49.808;9.968;2023-07-29T08:15:31;0.70;;;0.60;;
46505;SDS011;32220;49.808;9.968;2023-07-29T08:18:01;1.10;;;0.90;;
46505;SDS011;32220;49.808;9.968;2023-07-29T08:20:28;0.77;;;0.70;;
46505;SDS011;32220;49.808;9.968;2023-07-29T08:22:56;0.67;;;0.67;;
46505;SDS011;32220;49.808;9.968;2023-07-29T08:25:23;0.57;;;0.50;;
46505;SDS011;32220;49.808;9.968;2023-07-29T08:27:51;0.80;;;0.80;;
46505;SDS011;32220;49.808;9.968;2023-07-29T08:30:19;0.90;;;0.70;;
46505;SDS011;32220;49.808;9.968;2023-07-29T08:32:47;0.87;;;0.70;;
46505;SDS011;32220;49.808;9.968;2023-07-29T08:35:16;0.50;;;0.50;;
46505;SDS011;32220;49.808;9.968;2023-07-29T08:37:43;1.57;;;0.67;;
46505;SDS011;32220;49.808;9.968;2023-07-29T08:40:12;1.70;;;0.70;;
46505;SDS011;32220;49.808;9.968;2023-07-29T08:42:40;0.50;;;0.50;;
46505;SDS011;32220;49.808;9.968;2023-07-29T08:45:09;1.17;;;0.60;;
46505;SDS011;32220;49.808;9.968;2023-07-29T08:47:38;0.60;;;0.60;;
46505;SDS011;32220;49.808;9.968;2023-07-29T08:50:06;1.73;;;0.90;;
46505;SDS011;32220;49.808;9.968;2023-07-29T08:52:37;0.97;;;0.77;;
46505;SDS011;32220;49.808;9.968;2023-07-29T08:55:06;1.13;;;0.47;;
46505;SDS011;32220;49.808;9.968;2023-07-29T08:57:34;0.67;;;0.67;;
46505;SDS011;32220;49.808;9.968;2023-07-29T09:00:02;0.77;;;0.47;;
46505;SDS011;32220;49.808;9.968;2023-07-29T09:02:31;0.40;;;0.40;;
46505;SDS011;32220;49.808;9.968;2023-07-29T09:04:59;0.80;;;0.67;;
46505;SDS011;32220;49.808;9.968;2023-07-29T09:07:28;1.30;;;0.67;;
46505;SDS011;32220;49.808;9.968;2023-07-29T09:09:58;1.23;;;0.77;;
46505;SDS011;32220;49.808;9.968;2023-07-29T09:12:26;0.87;;;0.77;;
46505;SDS011;32220;49.808;9.968;2023-07-29T09:14:54;0.83;;;0.80;;
46505;SDS011;32220;49.808;9.968;2023-07-29T09:17:21;0.60;;;0.60;;
46505;SDS011;32220;49.808;9.968;2023-07-29T09:19:49;0.67;;;0.67;;
46505;SDS011;32220;49.808;9.968;2023-07-29T09:22:18;0.70;;;0.50;;
46505;SDS011;32220;49.808;9.968;2023-07-29T09:24:46;0.60;;;0.60;;
46505;SDS011;32220;49.808;9.968;2023-07-29T09:27:24;1.10;;;1.07;;
46505;SDS011;32220;49.808;9.968;2023-07-29T09:29:53;0.50;;;0.50;;
46505;SDS011;32220;49.808;9.968;2023-07-29T09:32:21;1.33;;;0.80;;
46505;SDS011;32220;49.808;9.968;2023-07-29T09:34:50;0.70;;;0.60;;
46505;SDS011;32220;49.808;9.968;2023-07-29T09:37:20;0.53;;;0.53;;
46505;SDS011;32220;49.808;9.968;2023-07-29T09:39:49;0.80;;;0.60;;
46505;SDS011;32220;49.808;9.968;2023-07-29T09:42:18;0.40;;;0.40;;
46505;SDS011;32220;49.808;9.968;2023-07-29T09:44:49;1.17;;;0.40;;
46505;SDS011;32220;49.808;9.968;2023-07-29T09:47:20;0.50;;;0.50;;
46505;SDS011;32220;49.808;9.968;2023-07-29T09:49:49;0.53;;;0.50;;
46505;SDS011;32220;49.808;9.968;2023-07-29T09:52:17;0.73;;;0.70;;
46505;SDS011;32220;49.808;9.968;2023-07-29T09:54:46;0.60;;;0.60;;
46505;SDS011;32220;49.808;9.968;2023-07-29T09:57:14;0.90;;;0.70;;
46505;SDS011;32220;49.808;9.968;2023-07-29T09:59:44;0.57;;;0.43;;
46505;SDS011;32220;49.808;9.968;2023-07-29T10:02:22;1.80;;;0.60;;
46505;SDS011;32220;49.808;9.968;2023-07-29T10:04:53;0.70;;;0.60;;
46505;SDS011;32220;49.808;9.968;2023-07-29T10:07:22;0.93;;;0.70;;
46505;SDS011;32220;49.808;9.968;2023-07-29T10:09:51;0.50;;;0.50;;
46505;SDS011;32220;49.808;9.968;2023-07-29T10:12:20;0.93;;;0.67;;
46505;SDS011;32220;49.808;9.968;2023-07-29T10:14:48;0.40;;;0.30;;
46505;SDS011;32220;49.808;9.968;2023-07-29T10:17:18;0.50;;;0.50;;
46505;SDS011;32220;49.808;9.968;2023-07-29T10:19:48;0.50;;;0.50;;
46505;SDS011;32220;49.808;9.968;2023-07-29T10:22:17;0.60;;;0.60;;
46505;SDS011;32220;49.808;9.968;2023-07-29T10:24:48;0.70;;;0.70;;
46505;SDS011;32220;49.808;9.968;2023-07-29T10:27:18;0.50;;;0.50;;
46505;SDS011;32220;49.808;9.968;2023-07-29T10:29:48;0.50;;;0.50;;
46505;SDS011;32220;49.808;9.968;2023-07-29T10:32:18;0.67;;;0.63;;
46505;SDS011;32220;49.808;9.968;2023-07-29T10:34:48;1.20;;;0.67;;
46505;SDS011;32220;49.808;9.968;2023-07-29T10:37:16;0.70;;;0.70;;
46505;SDS011;32220;49.808;9.968;2023-07-29T10:39:51;1.10;;;0.90;;
46505;SDS011;32220;49.808;9.968;2023-07-29T10:42:19;0.83;;;0.60;;
46505;SDS011;32220;49.808;9.968;2023-07-29T10:44:48;0.80;;;0.80;;
46505;SDS011;32220;49.808;9.968;2023-07-29T10:47:19;0.90;;;0.90;;
46505;SDS011;32220;49.808;9.968;2023-07-29T10:49:50;1.03;;;0.93;;
46505;SDS011;32220;49.808;9.968;2023-07-29T10:52:30;1.40;;;0.90;;
46505;SDS011;32220;49.808;9.968;2023-07-29T10:55:22;1.00;;;1.00;;
46505;SDS011;32220;49.808;9.968;2023-07-29T10:57:52;1.40;;;1.00;;
46505;SDS011;32220;49.808;9.968;2023-07-29T11:00:31;1.03;;;0.97;;
46505;SDS011;32220;49.808;9.968;2023-07-29T11:03:01;1.23;;;1.20;;
46505;SDS011;32220;49.808;9.968;2023-07-29T11:05:43;2.30;;;1.03;;
46505;SDS011;32220;49.808;9.968;2023-07-29T11:08:18;1.40;;;1.30;;
46505;SDS011;32220;49.808;9.968;2023-07-29T11:10:57;1.40;;;1.30;;
46505;SDS011;32220;49.808;9.968;2023-07-29T11:13:28;1.10;;;1.10;;
46505;SDS011;32220;49.808;9.968;2023-07-29T11:15:56;1.20;;;1.10;;
46505;SDS011;32220;49.808;9.968;2023-07-29T11:18:28;1.43;;;1.33;;
46505;SDS011;32220;49.808;9.968;2023-07-29T11:20:57;2.00;;;1.90;;
46505;SDS011;32220;49.808;9.968;2023-07-29T11:23:29;2.10;;;1.33;;
46505;SDS011;32220;49.808;9.968;2023-07-29T11:25:58;1.27;;;1.17;;
46505;SDS011;32220;49.808;9.968;2023-07-29T11:28:26;1.30;;;1.20;;
46505;SDS011;32220;49.808;9.968;2023-07-29T11:30:54;1.23;;;1.10;;
46505;SDS011;32220;49.808;9.968;2023-07-29T11:33:23;1.00;;;1.00;;
46505;SDS011;32220;49.808;9.968;2023-07-29T11:35:53;1.30;;;1.20;;
46505;SDS011;32220;49.808;9.968;2023-07-29T11:38:22;3.10;;;1.40;;
46505;SDS011;32220;49.808;9.968;2023-07-29T11:40:54;1.43;;;1.33;;
46505;SDS011;32220;49.808;9.968;2023-07-29T11:43:22;0.97;;;0.97;;
46505;SDS011;32220;49.808;9.968;2023-07-29T11:45:50;1.00;;;1.00;;
46505;SDS011;32220;49.808;9.968;2023-07-29T11:48:18;1.27;;;1.17;;
46505;SDS011;32220;49.808;9.968;2023-07-29T11:50:46;1.00;;;1.00;;
46505;SDS011;32220;49.808;9.968;2023-07-29T11:53:15;0.93;;;0.93;;
46505;SDS011;32220;49.808;9.968;2023-07-29T11:55:43;1.20;;;1.10;;
46505;SDS011;32220;49.808;9.968;2023-07-29T11:58:10;1.10;;;1.00;;
46505;SDS011;32220;49.808;9.968;2023-07-29T12:00:38;1.30;;;1.20;;
46505;SDS011;32220;49.808;9.968;2023-07-29T12:03:07;1.00;;;1.00;;
46505;SDS011;32220;49.808;9.968;2023-07-29T12:05:36;0.93;;;0.93;;
46505;SDS011;32220;49.808;9.968;2023-07-29T12:08:04;1.97;;;0.83;;
46505;SDS011;32220;49.808;9.968;2023-07-29T12:10:33;1.30;;;1.20;;
46505;SDS011;32220;49.808;9.968;2023-07-29T12:13:01;1.17;;;1.07;;
46505;SDS011;32220;49.808;9.968;2023-07-29T12:15:29;2.10;;;1.00;;
46505;SDS011;32220;49.808;9.968;2023-07-29T12:17:58;1.27;;;1.17;;
46505;SDS011;32220;49.808;9.968;2023-07-29T12:20:28;1.13;;;1.13;;
46505;SDS011;32220;49.808;9.968;2023-07-29T12:22:57;1.27;;;1.20;;
46505;SDS011;32220;49.808;9.968;2023-07-29T12:25:27;1.40;;;1.30;;
46505;SDS011;32220;49.808;9.968;2023-07-29T12:27:57;1.40;;;1.30;;
46505;SDS011;32220;49.808;9.968;2023-07-29T12:30:30;1.10;;;1.00;;
46505;SDS011;32220;49.808;9.968;2023-07-29T12:32:58;1.03;;;1.00;;
46505;SDS011;32220;49.808;9.968;2023-07-29T12:35:33;1.20;;;1.10;;
46505;SDS011;32220;49.808;9.968;2023-07-29T12:38:02;1.23;;;1.13;;
46505;SDS011;32220;49.808;9.968;2023-07-29T12:40:29;1.87;;;1.67;;
46505;SDS011;32220;49.808;9.968;2023-07-29T12:42:58;1.10;;;1.10;;
46505;SDS011;32220;49.808;9.968;2023-07-29T12:45:26;1.40;;;1.27;;
46505;SDS011;32220;49.808;9.968;2023-07-29T12:47:55;1.50;;;1.40;;
46505;SDS011;32220;49.808;9.968;2023-07-29T12:50:23;1.70;;;1.60;;
46505;SDS011;32220;49.808;9.968;2023-07-29T12:52:50;1.57;;;1.30;;
46505;SDS011;32220;49.808;9.968;2023-07-29T12:55:18;2.27;;;1.43;;
46505;SDS011;32220;49.808;9.968;2023-07-29T12:57:46;1.83;;;1.60;;
46505;SDS011;32220;49.808;9.968;2023-07-29T13:00:15;1.70;;;1.50;;
46505;SDS011;32220;49.808;9.968;2023-07-29T13:02:43;1.73;;;1.40;;
46505;SDS011;32220;49.808;9.968;2023-07-29T13:05:11;2.00;;;1.57;;
46505;SDS011;32220;49.808;9.968;2023-07-29T13:07:39;1.50;;;1.40;;
46505;SDS011;32220;49.808;9.968;2023-07-29T13:10:07;1.30;;;1.20;;
46505;SDS011;32220;49.808;9.968;2023-07-29T13:12:35;1.63;;;1.33;;
46505;SDS011;32220;49.808;9.968;2023-07-29T13:15:03;1.47;;;1.20;;
46505;SDS011;32220;49.808;9.968;2023-07-29T13:17:33;1.70;;;1.33;;
46505;SDS011;32220;49.808;9.968;2023-07-29T13:20:03;1.60;;;1.50;;
46505;SDS011;32220;49.808;9.968;2023-07-29T13:22:32;1.50;;;1.40;;
46505;SDS011;32220;49.808;9.968;2023-07-29T13:24:59;1.70;;;1.10;;
46505;SDS011;32220;49.808;9.968;2023-07-29T13:27:27;1.27;;;1.17;;
46505;SDS011;32220;49.808;9.968;2023-07-29T13:29:55;1.00;;;1.00;;
46505;SDS011;32220;49.808;9.968;2023-07-29T13:32:23;1.37;;;1.27;;
46505;SDS011;32220;49.808;9.968;2023-07-29T13:34:52;2.17;;;1.20;;
46505;SDS011;32220;49.808;9.968;2023-07-29T13:37:20;1.27;;;1.17;;
46505;SDS011;32220;49.808;9.968;2023-07-29T13:39:47;1.30;;;1.20;;
46505;SDS011;32220;49.808;9.968;2023-07-29T13:42:15;1.20;;;1.10;;
46505;SDS011;32220;49.808;9.968;2023-07-29T13:44:43;1.20;;;1.10;;
46505;SDS011;32220;49.808;9.968;2023-07-29T13:47:10;1.13;;;1.03;;
46505;SDS011;32220;49.808;9.968;2023-07-29T13:49:38;1.00;;;1.00;;
46505;SDS011;32220;49.808;9.968;2023-07-29T13:52:07;1.10;;;1.00;;
46505;SDS011;32220;49.808;9.968;2023-07-29T13:54:35;0.90;;;0.90;;
46505;SDS011;32220;49.808;9.968;2023-07-29T13:57:05;1.10;;;1.00;;
46505;SDS011;32220;49.808;9.968;2023-07-29T13:59:33;1.00;;;1.00;;
46505;SDS011;32220;49.808;9.968;2023-07-29T14:02:01;1.20;;;0.97;;
46505;SDS011;32220;49.808;9.968;2023-07-29T14:04:29;1.07;;;0.90;;
46505;SDS011;32220;49.808;9.968;2023-07-29T14:06:57;1.03;;;1.03;;
46505;SDS011;32220;49.808;9.968;2023-07-29T14:09:26;1.20;;;1.10;;
46505;SDS011;32220;49.808;9.968;2023-07-29T14:11:54;1.20;;;1.10;;
46505;SDS011;32220;49.808;9.968;2023-07-29T14:14:21;1.10;;;1.00;;
46505;SDS011;32220;49.808;9.968;2023-07-29T14:16:49;1.20;;;1.10;;
46505;SDS011;32220;49.808;9.968;2023-07-29T14:19:17;1.37;;;1.10;;
46505;SDS011;32220;49.808;9.968;2023-07-29T14:21:44;1.20;;;1.10;;
46505;SDS011;32220;49.808;9.968;2023-07-29T14:24:12;1.20;;;1.10;;
46505;SDS011;32220;49.808;9.968;2023-07-29T14:26:42;1.20;;;1.10;;
46505;SDS011;32220;49.808;9.968;2023-07-29T14:29:10;1.03;;;1.00;;
46505;SDS011;32220;49.808;9.968;2023-07-29T14:31:37;1.40;;;1.20;;
46505;SDS011;32220;49.808;9.968;2023-07-29T14:34:07;1.20;;;1.00;;
46505;SDS011;32220;49.808;9.968;2023-07-29T14:36:34;1.30;;;1.20;;
46505;SDS011;32220;49.808;9.968;2023-07-29T14:39:02;1.40;;;1.30;;
46505;SDS011;32220;49.808;9.968;2023-07-29T14:41:30;2.40;;;1.20;;
46505;SDS011;32220;49.808;9.968;2023-07-29T14:43:59;1.27;;;1.20;;
46505;SDS011;32220;49.808;9.968;2023-07-29T14:46:27;1.30;;;1.20;;
46505;SDS011;32220;49.808;9.968;2023-07-29T14:48:55;1.30;;;1.20;;
46505;SDS011;32220;49.808;9.968;2023-07-29T14:51:22;1.40;;;1.30;;
46505;SDS011;32220;49.808;9.968;2023-07-29T14:53:50;1.53;;;1.43;;
46505;SDS011;32220;49.808;9.968;2023-07-29T14:56:18;7.20;;;1.43;;
46505;SDS011;32220;49.808;9.968;2023-07-29T14:58:45;1.20;;;1.10;;